createdAt,value
2019-05-19T00:01:59.914Z,14.70
2019-05-19T00:04:29.109Z,14.70
2019-05-19T00:06:58.074Z,14.60
2019-05-19T00:09:27.000Z,14.60
2019-05-19T00:11:55.865Z,14.60
2019-05-19T00:14:24.985Z,14.60
2019-05-19T00:16:53.871Z,14.60
2019-05-19T00:19:26.622Z,14.60
2019-05-19T00:21:53.386Z,14.60
2019-05-19T00:24:22.125Z,14.50
2019-05-19T00:26:50.941Z,14.50
2019-05-19T00:29:19.868Z,14.50
2019-05-19T00:31:48.710Z,14.40
2019-05-19T00:34:17.683Z,14.40
2019-05-19T00:36:46.667Z,14.40
2019-05-19T00:39:15.723Z,14.40
2019-05-19T00:41:44.644Z,14.40
2019-05-19T00:44:13.487Z,14.30
2019-05-19T00:46:42.395Z,14.30
2019-05-19T00:49:11.347Z,14.30
2019-05-19T00:51:40.406Z,14.30
2019-05-19T00:54:10.288Z,14.30
2019-05-19T00:56:39.198Z,14.20
2019-05-19T00:59:08.841Z,14.20
2019-05-19T01:01:38.995Z,14.20
2019-05-19T01:04:07.788Z,14.20
2019-05-19T01:06:36.681Z,14.20
2019-05-19T01:09:06.808Z,14.10
2019-05-19T01:11:35.558Z,14.10
2019-05-19T01:14:04.549Z,14.10
2019-05-19T01:16:33.400Z,14.00
2019-05-19T01:19:02.358Z,14.00
2019-05-19T01:21:32.002Z,14.00
2019-05-19T01:24:00.783Z,13.90
2019-05-19T01:26:29.610Z,13.90
2019-05-19T01:28:58.455Z,13.80
2019-05-19T01:31:27.414Z,13.80
2019-05-19T01:33:56.316Z,13.70
2019-05-19T01:36:25.128Z,13.70
2019-05-19T01:38:53.886Z,13.70
2019-05-19T01:41:22.741Z,13.70
2019-05-19T01:43:51.723Z,13.70
2019-05-19T01:46:20.605Z,13.60
2019-05-19T01:48:49.347Z,13.60
2019-05-19T01:51:18.138Z,13.60
2019-05-19T01:53:46.932Z,13.60
2019-05-19T01:56:15.921Z,13.50
2019-05-19T01:58:44.871Z,13.50
2019-05-19T02:01:13.707Z,13.50
2019-05-19T02:03:44.166Z,13.50
2019-05-19T02:06:13.147Z,13.50
2019-05-19T02:08:42.004Z,13.50
2019-05-19T02:11:10.760Z,13.50
2019-05-19T02:13:39.573Z,13.40
2019-05-19T02:16:08.489Z,13.40
2019-05-19T02:18:37.418Z,13.40
2019-05-19T02:21:06.457Z,13.40
2019-05-19T02:23:35.245Z,13.40
2019-05-19T02:26:04.149Z,13.30
2019-05-19T02:28:33.129Z,13.30
2019-05-19T02:31:01.964Z,13.30
2019-05-19T02:33:34.982Z,13.30
2019-05-19T02:36:01.322Z,13.30
2019-05-19T02:38:30.184Z,13.30
2019-05-19T02:41:00.499Z,13.20
2019-05-19T02:43:29.926Z,13.20
2019-05-19T02:46:01.793Z,13.20
2019-05-19T02:48:31.969Z,13.20
2019-05-19T02:51:03.694Z,13.20
2019-05-19T02:53:33.286Z,13.20
2019-05-19T02:56:04.162Z,13.20
2019-05-19T02:58:33.923Z,13.20
2019-05-19T03:01:02.696Z,13.20
2019-05-19T03:03:33.904Z,13.20
2019-05-19T03:06:02.898Z,13.20
2019-05-19T03:08:32.294Z,13.20
2019-05-19T03:11:01.309Z,13.20
2019-05-19T03:13:30.231Z,13.20
2019-05-19T03:15:59.072Z,13.20
2019-05-19T03:18:28.037Z,13.20
2019-05-19T03:21:10.305Z,13.20
2019-05-19T03:23:27.329Z,13.20
2019-05-19T03:25:56.153Z,13.20
2019-05-19T03:28:24.956Z,13.20
2019-05-19T03:31:00.830Z,13.20
2019-05-19T03:33:31.234Z,13.30
2019-05-19T03:36:00.150Z,13.30
2019-05-19T03:38:28.969Z,13.30
2019-05-19T03:40:57.861Z,13.20
2019-05-19T03:43:26.735Z,13.20
2019-05-19T03:45:55.577Z,13.20
2019-05-19T03:48:24.502Z,13.20
2019-05-19T03:50:53.367Z,13.10
2019-05-19T03:53:22.260Z,13.20
2019-05-19T03:55:51.096Z,13.20
2019-05-19T03:58:20.418Z,13.20
2019-05-19T04:00:49.500Z,13.20
2019-05-19T04:03:18.328Z,13.30
2019-05-19T04:05:49.572Z,13.30
2019-05-19T04:08:18.363Z,13.30
2019-05-19T04:10:47.199Z,13.40
2019-05-19T04:13:16.038Z,13.40
2019-05-19T04:15:44.821Z,13.40
2019-05-19T04:18:13.709Z,13.40
2019-05-19T04:20:42.626Z,13.50
2019-05-19T04:23:11.540Z,13.50
2019-05-19T04:25:40.443Z,13.50
2019-05-19T04:28:09.291Z,13.60
2019-05-19T04:30:38.095Z,13.70
2019-05-19T04:33:07.069Z,13.70
2019-05-19T04:35:35.816Z,13.80
2019-05-19T04:38:04.678Z,13.90
2019-05-19T04:40:33.553Z,14.00
2019-05-19T04:43:02.522Z,14.20
2019-05-19T04:45:31.432Z,14.30
2019-05-19T04:48:00.359Z,14.60
2019-05-19T04:50:29.192Z,15.00
2019-05-19T04:52:58.103Z,15.10
2019-05-19T04:55:27.024Z,15.30
2019-05-19T04:57:55.851Z,15.20
2019-05-19T05:00:24.786Z,15.40
2019-05-19T05:02:53.620Z,15.50
2019-05-19T05:05:22.556Z,15.70
2019-05-19T05:07:51.412Z,16.50
2019-05-19T05:10:20.491Z,17.10
2019-05-19T05:12:49.338Z,17.40
2019-05-19T05:15:18.344Z,17.90
2019-05-19T05:17:47.183Z,18.50
2019-05-19T05:20:16.312Z,18.80
2019-05-19T05:22:47.269Z,19.00
2019-05-19T05:25:16.563Z,19.30
2019-05-19T05:27:45.299Z,19.70
2019-05-19T05:30:14.279Z,20.10
2019-05-19T05:32:43.142Z,20.50
2019-05-19T05:35:12.510Z,20.90
2019-05-19T05:37:41.415Z,21.40
2019-05-19T05:40:10.341Z,21.90
2019-05-19T05:42:39.169Z,22.30
2019-05-19T05:45:09.086Z,22.60
2019-05-19T05:47:37.941Z,23.00
2019-05-19T05:50:07.481Z,23.30
2019-05-19T05:52:38.792Z,23.60
2019-05-19T05:55:07.441Z,23.90
2019-05-19T05:57:36.454Z,24.20
2019-05-19T06:00:06.143Z,24.40
2019-05-19T06:02:35.367Z,24.70
2019-05-19T06:05:04.755Z,25.10
2019-05-19T06:07:33.738Z,25.30
2019-05-19T06:10:02.629Z,25.60
2019-05-19T06:12:31.498Z,26.20
2019-05-19T06:15:00.415Z,26.80
2019-05-19T06:17:29.377Z,27.30
2019-05-19T06:19:58.210Z,27.30
2019-05-19T06:22:27.084Z,27.10
2019-05-19T06:24:58.951Z,27.30
2019-05-19T06:27:26.454Z,27.70
2019-05-19T06:29:55.338Z,27.40
2019-05-19T06:32:34.102Z,27.60
2019-05-19T06:35:03.089Z,28.00
2019-05-19T06:37:31.975Z,27.80
2019-05-19T06:40:00.859Z,28.10
2019-05-19T06:42:49.299Z,28.20
2019-05-19T06:45:18.380Z,28.00
2019-05-19T06:47:47.349Z,28.10
2019-05-19T06:50:16.565Z,28.70
2019-05-19T06:52:45.464Z,29.20
2019-05-19T06:55:15.255Z,29.40
2019-05-19T06:57:44.290Z,29.60
2019-05-19T07:00:14.628Z,29.90
2019-05-19T07:02:43.466Z,30.10
2019-05-19T07:05:13.014Z,30.40
2019-05-19T07:07:41.936Z,30.70
2019-05-19T07:10:11.338Z,30.80
2019-05-19T07:12:40.172Z,31.10
2019-05-19T07:15:09.621Z,31.50
2019-05-19T07:17:38.436Z,31.70
2019-05-19T07:20:08.033Z,31.70
2019-05-19T07:22:37.699Z,32.00
2019-05-19T07:25:07.186Z,32.10
2019-05-19T07:27:36.321Z,32.30
2019-05-19T07:30:05.496Z,32.80
2019-05-19T07:32:34.276Z,32.80
2019-05-19T07:35:03.189Z,32.90
2019-05-19T07:37:32.336Z,32.40
2019-05-19T07:40:01.281Z,31.90
2019-05-19T07:42:30.215Z,32.10
2019-05-19T07:44:59.110Z,32.40
2019-05-19T07:47:27.952Z,32.30
2019-05-19T07:49:56.806Z,32.40
2019-05-19T07:52:25.864Z,32.40
2019-05-19T07:54:54.679Z,32.40
2019-05-19T07:57:23.622Z,32.40
2019-05-19T07:59:52.380Z,32.00
2019-05-19T08:02:21.152Z,31.70
2019-05-19T08:04:50.008Z,32.00
2019-05-19T08:07:19.227Z,32.00
2019-05-19T08:09:48.046Z,31.90
2019-05-19T08:12:17.245Z,32.20
2019-05-19T08:14:46.133Z,32.40
2019-05-19T08:17:14.969Z,32.40
2019-05-19T08:19:43.955Z,32.00
2019-05-19T08:22:12.873Z,31.90
2019-05-19T08:24:41.749Z,31.50
2019-05-19T08:27:11.557Z,31.40
2019-05-19T08:29:40.412Z,31.10
2019-05-19T08:32:09.325Z,30.70
2019-05-19T08:34:38.140Z,30.20
2019-05-19T08:37:07.043Z,30.20
2019-05-19T08:39:35.907Z,29.60
2019-05-19T08:42:04.717Z,29.50
2019-05-19T08:44:33.561Z,28.60
2019-05-19T08:47:02.376Z,28.00
2019-05-19T08:49:31.172Z,27.90
2019-05-19T08:52:00.060Z,27.80
2019-05-19T08:54:28.890Z,27.80
2019-05-19T08:56:57.770Z,27.60
2019-05-19T08:59:26.740Z,27.60
2019-05-19T09:01:55.628Z,27.50
2019-05-19T09:04:24.393Z,27.30
2019-05-19T09:06:53.150Z,27.40
2019-05-19T09:09:21.993Z,26.40
2019-05-19T09:11:50.869Z,26.30
2019-05-19T09:14:19.747Z,26.00
2019-05-19T09:16:48.596Z,26.00
2019-05-19T09:19:17.481Z,26.10
2019-05-19T09:21:46.366Z,26.10
2019-05-19T09:24:29.552Z,25.70
2019-05-19T09:26:45.763Z,25.70
2019-05-19T09:29:14.643Z,25.80
2019-05-19T09:31:43.509Z,25.70
2019-05-19T09:34:12.355Z,25.50
2019-05-19T09:36:41.361Z,25.50
2019-05-19T09:39:11.737Z,25.30
2019-05-19T09:41:40.556Z,24.70
2019-05-19T09:44:09.391Z,24.80
2019-05-19T09:46:38.306Z,24.70
2019-05-19T09:49:24.768Z,24.30
2019-05-19T09:51:53.697Z,24.30
2019-05-19T09:54:22.506Z,24.30
2019-05-19T09:56:51.365Z,24.50
2019-05-19T09:59:20.206Z,24.60
2019-05-19T10:01:49.084Z,24.60
2019-05-19T10:04:17.883Z,24.70
2019-05-19T10:06:46.754Z,24.70
2019-05-19T10:09:46.180Z,24.60
2019-05-19T10:12:14.965Z,24.60
2019-05-19T10:14:43.856Z,24.50
2019-05-19T10:17:12.822Z,24.50
2019-05-19T10:19:41.738Z,24.40
2019-05-19T10:22:10.732Z,24.40
2019-05-19T10:24:39.607Z,24.40
2019-05-19T10:27:08.517Z,24.30
2019-05-19T10:29:37.355Z,24.30
2019-05-19T10:32:06.291Z,24.10
2019-05-19T10:34:35.103Z,24.10
2019-05-19T10:37:04.087Z,24.10
2019-05-19T10:39:32.960Z,24.20
2019-05-19T10:42:02.098Z,24.20
2019-05-19T10:44:31.405Z,24.10
2019-05-19T10:47:00.379Z,24.10
2019-05-19T10:49:29.178Z,24.10
2019-05-19T10:51:58.140Z,24.10
2019-05-19T10:54:26.980Z,24.10
2019-05-19T10:56:55.896Z,24.10
2019-05-19T10:59:24.704Z,24.10
2019-05-19T11:01:53.616Z,24.00
2019-05-19T11:04:22.468Z,24.10
2019-05-19T11:06:51.474Z,24.00
2019-05-19T11:09:20.490Z,24.00
2019-05-19T11:11:49.377Z,24.10
2019-05-19T11:14:18.372Z,24.10
2019-05-19T11:16:47.260Z,24.00
2019-05-19T11:19:16.124Z,23.90
2019-05-19T11:21:44.951Z,23.80
2019-05-19T11:24:13.868Z,23.90
2019-05-19T11:26:42.629Z,23.80
2019-05-19T11:29:11.496Z,23.90
2019-05-19T11:31:40.442Z,23.90
2019-05-19T11:34:09.369Z,23.80
2019-05-19T11:36:38.186Z,23.80
2019-05-19T11:39:08.596Z,23.90
2019-05-19T11:41:37.498Z,24.00
2019-05-19T11:44:06.652Z,24.00
2019-05-19T11:46:35.515Z,24.10
2019-05-19T11:49:04.569Z,24.10
2019-05-19T11:51:33.477Z,24.20
2019-05-19T11:54:02.570Z,24.20
2019-05-19T11:56:31.383Z,24.20
2019-05-19T11:59:00.236Z,24.30
2019-05-19T12:01:30.305Z,24.30
2019-05-19T12:03:59.352Z,24.30
2019-05-19T12:06:39.486Z,24.20
2019-05-19T12:09:04.707Z,24.30
2019-05-19T12:11:37.312Z,24.30
2019-05-19T12:14:07.554Z,24.20
2019-05-19T12:16:36.687Z,24.30
2019-05-19T12:19:05.712Z,24.20
2019-05-19T12:21:34.572Z,24.10
2019-05-19T12:24:03.501Z,24.10
2019-05-19T12:26:34.802Z,24.10
2019-05-19T12:29:02.847Z,24.10
2019-05-19T12:31:31.730Z,24.10
2019-05-19T12:34:00.592Z,24.10
2019-05-19T12:36:29.376Z,24.10
2019-05-19T12:38:58.310Z,24.10
2019-05-19T12:41:27.240Z,24.10
2019-05-19T12:43:56.114Z,24.00
2019-05-19T12:46:25.148Z,24.00
2019-05-19T12:48:53.961Z,24.10
2019-05-19T12:51:22.963Z,24.00
2019-05-19T12:53:51.790Z,24.10
2019-05-19T12:56:20.542Z,24.10
2019-05-19T12:58:49.310Z,24.10
2019-05-19T13:01:18.093Z,24.00
2019-05-19T13:03:47.031Z,24.10
2019-05-19T13:06:15.858Z,24.10
2019-05-19T13:08:44.671Z,24.00
2019-05-19T13:11:13.449Z,24.10
2019-05-19T13:13:42.414Z,24.10
2019-05-19T13:16:11.313Z,24.10
2019-05-19T13:18:40.113Z,24.10
2019-05-19T13:21:08.954Z,24.10
2019-05-19T13:23:37.911Z,24.10
2019-05-19T13:26:06.829Z,24.10
2019-05-19T13:28:35.654Z,24.10
2019-05-19T13:31:04.432Z,24.10
2019-05-19T13:33:33.294Z,24.10
2019-05-19T13:36:02.343Z,24.20
2019-05-19T13:38:31.298Z,24.10
2019-05-19T13:41:00.257Z,24.20
2019-05-19T13:43:29.271Z,24.20
2019-05-19T13:45:58.171Z,24.10
2019-05-19T13:48:27.092Z,24.10
2019-05-19T13:50:56.127Z,24.10
2019-05-19T13:53:25.101Z,24.10
2019-05-19T13:55:53.946Z,24.10
2019-05-19T13:58:22.774Z,24.10
2019-05-19T14:00:51.534Z,24.10
2019-05-19T14:03:20.348Z,24.00
2019-05-19T14:05:49.245Z,24.00
2019-05-19T14:08:18.188Z,24.00
2019-05-19T14:10:47.115Z,24.00
2019-05-19T14:13:16.007Z,24.00
2019-05-19T14:15:44.744Z,23.90
2019-05-19T14:18:13.565Z,23.90
2019-05-19T14:20:42.637Z,23.90
2019-05-19T14:23:11.450Z,23.90
2019-05-19T14:25:40.212Z,23.90
2019-05-19T14:28:09.005Z,23.90
2019-05-19T14:30:37.887Z,23.90
2019-05-19T14:33:06.740Z,23.90
2019-05-19T14:35:35.532Z,23.90
2019-05-19T14:38:04.515Z,23.90
2019-05-19T14:40:33.386Z,23.90
2019-05-19T14:43:03.151Z,23.90
2019-05-19T14:45:32.162Z,23.90
2019-05-19T14:48:01.044Z,24.00
2019-05-19T14:50:29.962Z,23.90
2019-05-19T14:53:00.535Z,23.90
2019-05-19T14:55:29.362Z,24.00
2019-05-19T14:57:58.292Z,24.00
2019-05-19T15:00:27.287Z,24.00
2019-05-19T15:02:56.482Z,24.10
2019-05-19T15:05:25.314Z,24.00
2019-05-19T15:07:54.218Z,24.10
2019-05-19T15:10:23.152Z,24.10
2019-05-19T15:12:52.042Z,24.10
2019-05-19T15:15:20.970Z,24.10
2019-05-19T15:17:49.901Z,24.10
2019-05-19T15:20:19.104Z,24.10
2019-05-19T15:22:47.978Z,24.10
2019-05-19T15:25:16.976Z,24.10
2019-05-19T15:27:59.283Z,24.00
2019-05-19T15:30:16.971Z,24.10
2019-05-19T15:32:45.915Z,24.10
2019-05-19T15:35:15.678Z,24.00
2019-05-19T15:37:44.472Z,24.00
2019-05-19T15:40:13.807Z,24.00
2019-05-19T15:42:42.567Z,24.00
2019-05-19T15:45:12.046Z,24.00
2019-05-19T15:47:40.990Z,24.00
2019-05-19T15:50:10.407Z,23.90
2019-05-19T15:52:39.247Z,23.90
2019-05-19T15:55:27.336Z,24.00
2019-05-19T15:57:56.232Z,23.90
2019-05-19T16:00:24.992Z,23.90
2019-05-19T16:02:53.900Z,23.90
2019-05-19T16:05:22.914Z,23.90
2019-05-19T16:07:51.812Z,23.90
2019-05-19T16:10:20.816Z,23.80
2019-05-19T16:12:49.942Z,23.80
2019-05-19T16:15:19.145Z,23.80
2019-05-19T16:17:48.184Z,23.80
2019-05-19T16:20:17.290Z,23.80
2019-05-19T16:22:46.338Z,23.80
2019-05-19T16:25:15.430Z,23.80
2019-05-19T16:27:44.203Z,23.80
2019-05-19T16:30:13.186Z,23.80
2019-05-19T16:32:42.133Z,23.80
2019-05-19T16:35:11.232Z,23.80
2019-05-19T16:37:59.378Z,23.80
2019-05-19T16:40:28.386Z,23.80
2019-05-19T16:42:57.223Z,23.80
2019-05-19T16:45:26.162Z,23.80
2019-05-19T16:47:55.052Z,23.80
2019-05-19T16:50:24.142Z,23.80
2019-05-19T16:52:55.046Z,23.80
2019-05-19T16:55:28.337Z,23.80
2019-05-19T16:57:57.390Z,23.80
2019-05-19T17:00:27.712Z,23.80
2019-05-19T17:02:58.883Z,23.80
2019-05-19T17:05:27.809Z,23.80
2019-05-19T17:07:56.724Z,23.80
2019-05-19T17:10:25.547Z,23.80
2019-05-19T17:12:54.496Z,23.80
2019-05-19T17:15:23.581Z,23.80
2019-05-19T17:17:52.724Z,23.80
2019-05-19T17:20:22.065Z,23.70
2019-05-19T17:22:50.925Z,23.70
2019-05-19T17:25:20.159Z,23.60
2019-05-19T17:27:49.036Z,23.60
2019-05-19T17:30:19.773Z,23.60
2019-05-19T17:32:48.688Z,23.50
2019-05-19T17:35:17.692Z,23.50
2019-05-19T17:37:46.709Z,23.50
2019-05-19T17:40:17.006Z,23.50
2019-05-19T17:42:46.031Z,23.40
2019-05-19T17:45:15.716Z,23.40
2019-05-19T17:47:44.694Z,23.40
2019-05-19T17:50:14.056Z,23.40
2019-05-19T17:52:43.235Z,23.30
2019-05-19T17:55:12.292Z,23.30
2019-05-19T17:57:41.377Z,23.30
2019-05-19T18:00:10.823Z,23.20
2019-05-19T18:02:39.884Z,23.20
2019-05-19T18:05:09.289Z,23.20
2019-05-19T18:07:38.741Z,23.10
2019-05-19T18:10:08.132Z,23.10
2019-05-19T18:12:40.598Z,23.10
2019-05-19T18:15:10.537Z,23.00
2019-05-19T18:17:39.742Z,23.00
2019-05-19T18:20:22.958Z,22.90
2019-05-19T18:22:40.413Z,22.90
2019-05-19T18:25:10.227Z,22.90
2019-05-19T18:27:39.299Z,22.80
2019-05-19T18:30:08.712Z,22.80
2019-05-19T18:32:37.497Z,22.80
2019-05-19T18:35:07.285Z,22.70
2019-05-19T18:37:36.151Z,22.70
2019-05-19T18:40:05.676Z,22.70
2019-05-19T18:42:34.705Z,22.70
2019-05-19T18:45:03.846Z,22.60
2019-05-19T18:47:32.608Z,22.50
2019-05-19T18:50:01.507Z,22.50
2019-05-19T18:52:30.432Z,22.40
2019-05-19T18:54:59.425Z,22.40
2019-05-19T18:57:28.395Z,22.40
2019-05-19T18:59:57.299Z,22.40
2019-05-19T19:02:26.311Z,22.30
2019-05-19T19:04:55.418Z,22.30
2019-05-19T19:07:43.832Z,22.20
2019-05-19T19:10:14.169Z,22.20
2019-05-19T19:12:43.338Z,22.20
2019-05-19T19:15:12.571Z,22.10
2019-05-19T19:17:41.425Z,22.10
2019-05-19T19:20:10.581Z,22.10
2019-05-19T19:22:39.707Z,22.00
2019-05-19T19:25:08.622Z,22.00
2019-05-19T19:27:37.952Z,21.90
2019-05-19T19:30:09.100Z,21.90
2019-05-19T19:32:38.556Z,21.80
2019-05-19T19:35:08.501Z,21.80
2019-05-19T19:37:37.497Z,21.80
2019-05-19T19:40:07.303Z,21.70
2019-05-19T19:42:36.698Z,21.70
2019-05-19T19:45:06.758Z,21.70
2019-05-19T19:47:36.623Z,21.60
2019-05-19T19:50:07.475Z,21.60
2019-05-19T19:52:38.313Z,21.50
2019-05-19T19:55:07.406Z,21.50
2019-05-19T19:57:37.043Z,21.50
2019-05-19T20:00:17.866Z,21.50
2019-05-19T20:02:37.645Z,21.50
2019-05-19T20:05:07.544Z,21.40
2019-05-19T20:07:36.983Z,21.20
2019-05-19T20:10:06.482Z,21.30
2019-05-19T20:12:35.595Z,21.30
2019-05-19T20:15:05.385Z,21.20
2019-05-19T20:17:34.449Z,21.20
2019-05-19T20:20:03.342Z,21.20
2019-05-19T20:22:32.893Z,21.10
2019-05-19T20:25:02.249Z,21.10
2019-05-19T20:27:32.145Z,21.10
2019-05-19T20:30:03.682Z,21.00
2019-05-19T20:32:33.731Z,21.00
2019-05-19T20:35:03.135Z,21.00
2019-05-19T20:37:33.019Z,20.90
2019-05-19T20:40:02.501Z,20.90
2019-05-19T20:42:32.108Z,20.90
2019-05-19T20:45:02.121Z,20.80
2019-05-19T20:47:31.548Z,20.80
2019-05-19T20:50:01.017Z,20.80
2019-05-19T20:52:29.941Z,20.80
2019-05-19T20:54:58.903Z,20.70
2019-05-19T20:57:29.292Z,20.70
2019-05-19T20:59:59.936Z,20.60
2019-05-19T21:02:30.075Z,20.50
2019-05-19T21:04:59.833Z,20.50
2019-05-19T21:07:29.855Z,20.40
2019-05-19T21:09:59.955Z,20.40
2019-05-19T21:12:29.178Z,20.30
2019-05-19T21:14:58.611Z,20.30
2019-05-19T21:17:27.442Z,20.30
2019-05-19T21:19:56.739Z,20.20
2019-05-19T21:22:26.387Z,20.20
2019-05-19T21:24:56.014Z,20.10
2019-05-19T21:27:24.939Z,20.10
2019-05-19T21:29:54.060Z,20.10
2019-05-19T21:32:23.436Z,20.00
2019-05-19T21:34:52.775Z,20.00
2019-05-19T21:37:21.882Z,19.90
2019-05-19T21:39:50.780Z,19.90
2019-05-19T21:42:19.878Z,19.90
2019-05-19T21:44:49.343Z,19.80
2019-05-19T21:47:18.568Z,19.70
2019-05-19T21:49:48.356Z,19.70
2019-05-19T21:52:17.454Z,19.70
2019-05-19T21:54:46.581Z,19.60
2019-05-19T21:57:15.731Z,19.60
2019-05-19T21:59:44.956Z,19.60
2019-05-19T22:02:14.101Z,19.50
2019-05-19T22:04:43.494Z,19.50
2019-05-19T22:07:24.168Z,19.50
2019-05-19T22:09:53.168Z,19.40
2019-05-19T22:12:22.753Z,19.50
2019-05-19T22:14:53.706Z,19.40
2019-05-19T22:17:22.739Z,19.40
2019-05-19T22:19:51.664Z,19.30
2019-05-19T22:22:20.552Z,19.30
2019-05-19T22:24:49.550Z,19.20
2019-05-19T22:27:18.425Z,19.30
2019-05-19T22:29:48.160Z,19.20
2019-05-19T22:32:16.968Z,19.20
2019-05-19T22:34:45.826Z,19.10
2019-05-19T22:37:14.595Z,19.00
2019-05-19T22:39:43.391Z,18.90
2019-05-19T22:42:12.199Z,18.90
2019-05-19T22:44:41.016Z,18.90
2019-05-19T22:47:09.926Z,18.80
2019-05-19T22:49:38.730Z,18.80
2019-05-19T22:52:07.565Z,18.80
2019-05-19T22:54:36.333Z,18.70
2019-05-19T22:57:05.171Z,18.70
2019-05-19T22:59:34.095Z,18.70
2019-05-19T23:02:02.840Z,18.70
2019-05-19T23:04:31.601Z,18.60
2019-05-19T23:07:00.474Z,18.50
2019-05-19T23:09:29.305Z,18.50
2019-05-19T23:11:58.147Z,18.50
2019-05-19T23:14:27.015Z,18.50
2019-05-19T23:16:55.787Z,18.50
2019-05-19T23:19:24.583Z,18.40
2019-05-19T23:21:53.644Z,18.40
2019-05-19T23:24:22.412Z,18.40
2019-05-19T23:26:51.250Z,18.30
2019-05-19T23:29:20.153Z,18.30
2019-05-19T23:31:48.995Z,18.30
2019-05-19T23:34:18.054Z,18.20
2019-05-19T23:36:46.944Z,18.20
2019-05-19T23:39:15.739Z,18.10
2019-05-19T23:41:44.567Z,18.10
2019-05-19T23:44:13.463Z,18.10
2019-05-19T23:46:42.323Z,18.10
2019-05-19T23:49:11.238Z,18.10
2019-05-19T23:51:40.288Z,18.10
2019-05-19T23:54:09.152Z,18.00
2019-05-19T23:56:37.998Z,17.90
2019-05-19T23:59:06.863Z,18.00
